createdAt,value
2022-09-20T00:00:37.302Z,78.43
2022-09-20T00:01:40.207Z,78.05
2022-09-20T00:02:44.118Z,78.16
2022-09-20T00:03:48.418Z,77.50
2022-09-20T00:04:51.986Z,79.23
2022-09-20T00:05:55.250Z,80.65
2022-09-20T00:06:59.592Z,79.91
2022-09-20T00:08:05.204Z,80.07
2022-09-20T00:09:08.599Z,80.42
2022-09-20T00:10:11.466Z,80.47
2022-09-20T00:11:22.398Z,80.21
2022-09-20T00:12:27.465Z,80.14
2022-09-20T00:13:30.761Z,78.92
2022-09-20T00:14:34.198Z,78.27
2022-09-20T00:15:41.949Z,78.48
2022-09-20T00:16:45.099Z,78.01
2022-09-20T00:17:47.809Z,78.12
2022-09-20T00:18:52.463Z,77.97
2022-09-20T00:19:55.969Z,78.16
2022-09-20T00:20:59.370Z,77.77
2022-09-20T00:22:01.739Z,78.56
2022-09-20T00:23:08.045Z,79.19
2022-09-20T00:24:11.628Z,79.30
2022-09-20T00:25:17.255Z,79.85
2022-09-20T00:26:20.434Z,80.83
2022-09-20T00:27:24.159Z,81.17
2022-09-20T00:28:28.390Z,81.70
2022-09-20T00:29:31.679Z,82.24
2022-09-20T00:30:37.973Z,82.05
2022-09-20T00:31:42.270Z,82.25
2022-09-20T00:32:45.641Z,81.61
2022-09-20T00:34:07.649Z,81.58
2022-09-20T00:35:17.020Z,82.25
2022-09-20T00:36:20.607Z,82.45
2022-09-20T00:37:24.035Z,82.63
2022-09-20T00:38:27.828Z,82.42
2022-09-20T00:39:32.731Z,82.10
2022-09-20T00:40:35.260Z,82.23
2022-09-20T00:41:40.743Z,82.40
2022-09-20T00:42:46.957Z,84.12
2022-09-20T00:43:50.364Z,84.60
2022-09-20T00:45:00.543Z,84.22
2022-09-20T00:46:05.502Z,84.22
2022-09-20T00:47:10.061Z,83.85
2022-09-20T00:48:18.065Z,84.21
2022-09-20T00:49:23.175Z,83.89
2022-09-20T00:50:48.278Z,83.75
2022-09-20T00:51:57.513Z,83.78
2022-09-20T00:53:02.888Z,85.89
2022-09-20T00:54:08.181Z,86.28
2022-09-20T00:55:12.134Z,86.90
2022-09-20T00:56:20.199Z,86.49
2022-09-20T00:57:25.798Z,85.80
2022-09-20T00:58:29.605Z,85.41
2022-09-20T00:59:35.731Z,85.44
2022-09-20T01:00:40.113Z,85.83
2022-09-20T01:01:44.115Z,85.56
2022-09-20T01:02:50.567Z,85.27
2022-09-20T01:03:55.142Z,85.62
2022-09-20T01:04:59.001Z,85.34
2022-09-20T01:06:02.913Z,85.51
2022-09-20T01:07:08.823Z,86.30
2022-09-20T01:08:12.545Z,85.51
2022-09-20T01:09:16.667Z,86.23
2022-09-20T01:10:20.391Z,85.74
2022-09-20T01:11:23.698Z,85.74
2022-09-20T01:12:31.058Z,85.58
2022-09-20T01:13:34.706Z,85.20
2022-09-20T01:14:36.908Z,85.86
2022-09-20T01:15:40.421Z,85.31
2022-09-20T01:16:43.985Z,85.22
2022-09-20T01:17:51.390Z,84.62
2022-09-20T01:18:57.517Z,85.26
2022-09-20T01:20:15.070Z,85.68
2022-09-20T01:21:22.179Z,84.29
2022-09-20T01:22:31.417Z,83.72
2022-09-20T01:23:46.768Z,83.92
2022-09-20T01:25:05.804Z,83.13
2022-09-20T01:26:12.640Z,82.49
2022-09-20T01:27:35.574Z,82.12
2022-09-20T01:28:42.536Z,82.36
2022-09-20T01:29:47.712Z,82.74
2022-09-20T01:31:10.950Z,82.46
2022-09-20T01:32:15.824Z,82.50
2022-09-20T01:33:21.971Z,81.98
2022-09-20T01:34:28.260Z,83.00
2022-09-20T01:35:33.427Z,82.73
2022-09-20T01:36:44.986Z,82.70
2022-09-20T01:37:50.254Z,82.55
2022-09-20T01:38:56.685Z,82.88
2022-09-20T01:40:01.765Z,83.56
2022-09-20T01:41:18.380Z,83.09
2022-09-20T01:42:25.174Z,83.68
2022-09-20T01:43:32.014Z,83.64
2022-09-20T01:44:47.435Z,83.86
2022-09-20T01:45:51.224Z,83.62
2022-09-20T01:46:56.535Z,83.62
2022-09-20T01:48:00.654Z,83.56
2022-09-20T01:49:11.586Z,83.65
2022-09-20T01:50:33.580Z,83.41
2022-09-20T01:51:50.140Z,83.40
2022-09-20T01:53:07.316Z,83.60
2022-09-20T01:54:15.104Z,83.29
2022-09-20T01:55:23.205Z,83.47
2022-09-20T01:56:46.946Z,83.45
2022-09-20T01:58:00.512Z,83.86
2022-09-20T01:59:27.169Z,83.75
2022-09-20T02:00:19.734Z,83.78
2022-09-20T02:01:27.907Z,84.07
2022-09-20T02:02:52.017Z,84.81
2022-09-20T02:04:07.168Z,84.54
2022-09-20T02:05:28.903Z,85.27
2022-09-20T02:06:50.145Z,85.67
2022-09-20T02:08:04.200Z,86.36
2022-09-20T02:09:09.493Z,87.03
2022-09-20T02:10:19.906Z,85.95
2022-09-20T02:11:24.029Z,85.95
2022-09-20T02:12:33.698Z,85.78
2022-09-20T02:13:57.057Z,86.68
2022-09-20T02:15:20.827Z,86.40
2022-09-20T02:16:35.915Z,86.31
2022-09-20T02:17:50.292Z,86.42
2022-09-20T02:19:07.688Z,86.24
2022-09-20T02:20:17.239Z,86.36
2022-09-20T02:21:40.811Z,86.34
2022-09-20T02:22:53.865Z,86.36
2022-09-20T02:24:00.962Z,85.73
2022-09-20T02:25:12.007Z,85.67
2022-09-20T02:26:33.470Z,86.27
2022-09-20T02:27:39.838Z,87.40
2022-09-20T02:28:55.517Z,87.09
2022-09-20T02:30:01.852Z,87.47
2022-09-20T02:31:18.890Z,87.68
2022-09-20T02:32:25.876Z,87.52
2022-09-20T02:33:35.979Z,88.79
2022-09-20T02:34:43.133Z,88.88
2022-09-20T02:36:05.424Z,88.68
2022-09-20T02:37:10.515Z,88.41
2022-09-20T02:38:22.463Z,87.70
2022-09-20T02:39:40.081Z,86.92
2022-09-20T02:40:45.192Z,87.32
2022-09-20T02:42:05.475Z,86.65
2022-09-20T02:43:13.439Z,85.98
2022-09-20T02:44:21.874Z,86.76
2022-09-20T02:45:32.562Z,87.53
2022-09-20T02:46:41.679Z,86.99
2022-09-20T02:47:45.529Z,86.64
2022-09-20T02:49:08.492Z,86.28
2022-09-20T02:50:15.653Z,86.17
2022-09-20T02:51:22.082Z,87.13
2022-09-20T02:52:33.202Z,87.23
2022-09-20T02:53:37.451Z,87.24
2022-09-20T02:54:42.730Z,86.34
2022-09-20T02:55:58.154Z,86.55
2022-09-20T02:57:06.763Z,86.10
2022-09-20T02:58:24.056Z,85.61
2022-09-20T02:59:32.233Z,85.20
2022-09-20T03:00:54.259Z,86.57
2022-09-20T03:02:02.470Z,86.07
2022-09-20T03:03:25.792Z,86.87
2022-09-20T03:04:46.957Z,87.70
2022-09-20T03:06:06.558Z,88.06
2022-09-20T03:07:11.836Z,87.71
2022-09-20T03:08:16.072Z,87.02
2022-09-20T03:09:30.900Z,86.51
2022-09-20T03:10:54.424Z,86.75
2022-09-20T03:11:59.907Z,86.44
2022-09-20T03:13:09.354Z,85.81
2022-09-20T03:14:17.664Z,86.74
2022-09-20T03:15:22.840Z,86.23
2022-09-20T03:16:30.972Z,86.35
2022-09-20T03:17:51.588Z,86.45
2022-09-20T03:19:14.781Z,86.14
2022-09-20T03:20:28.573Z,86.30
2022-09-20T03:21:38.343Z,86.59
2022-09-20T03:22:58.321Z,86.57
2022-09-20T03:24:13.143Z,87.05
2022-09-20T03:25:34.399Z,86.90
2022-09-20T03:26:51.576Z,86.30
2022-09-20T03:28:13.371Z,86.61
2022-09-20T03:29:17.711Z,86.22
2022-09-20T03:30:24.758Z,85.66
2022-09-20T03:31:32.944Z,85.46
2022-09-20T03:32:41.074Z,85.35
2022-09-20T03:33:46.243Z,85.56
2022-09-20T03:34:51.633Z,85.51
2022-09-20T03:36:13.255Z,85.90
2022-09-20T03:37:17.447Z,85.38
2022-09-20T03:38:28.471Z,85.63
2022-09-20T03:39:50.985Z,85.44
2022-09-20T03:40:59.503Z,85.66
2022-09-20T03:42:04.470Z,84.73
2022-09-20T03:43:25.939Z,84.98
2022-09-20T03:44:32.864Z,85.44
2022-09-20T03:45:43.978Z,85.57
2022-09-20T03:46:48.861Z,85.22
2022-09-20T03:48:03.451Z,85.10
2022-09-20T03:49:25.867Z,85.08
2022-09-20T03:50:39.812Z,85.78
2022-09-20T03:51:47.075Z,86.14
2022-09-20T03:52:58.308Z,86.04
2022-09-20T03:54:03.919Z,85.42
2022-09-20T03:55:16.078Z,86.10
2022-09-20T03:56:33.694Z,85.86
2022-09-20T03:57:57.149Z,86.30
2022-09-20T03:59:07.746Z,85.93
2022-09-20T04:00:22.532Z,85.96
2022-09-20T04:01:34.477Z,86.24
2022-09-20T04:02:55.549Z,85.80
2022-09-20T04:04:16.508Z,85.28
2022-09-20T04:05:20.953Z,85.07
2022-09-20T04:06:26.329Z,84.75
2022-09-20T04:07:35.588Z,84.41
2022-09-20T04:08:41.184Z,84.25
2022-09-20T04:10:04.850Z,84.82
2022-09-20T04:12:43.410Z,84.94
2022-09-20T04:13:52.542Z,84.35
2022-09-20T04:15:00.404Z,84.46
2022-09-20T04:16:07.874Z,83.60
2022-09-20T04:17:31.677Z,82.97
2022-09-20T04:18:40.406Z,82.73
2022-09-20T04:19:52.578Z,81.88
2022-09-20T04:20:58.068Z,81.93
2022-09-20T04:22:05.019Z,81.69
2022-09-20T04:23:10.302Z,80.64
2022-09-20T04:24:30.934Z,80.90
2022-09-20T04:25:43.978Z,81.12
2022-09-20T04:26:48.076Z,81.37
2022-09-20T04:27:54.610Z,81.00
2022-09-20T04:29:10.335Z,81.04
2022-09-20T04:30:27.598Z,81.60
2022-09-20T04:31:32.847Z,80.05
2022-09-20T04:32:37.971Z,80.22
2022-09-20T04:33:43.146Z,80.45
2022-09-20T04:35:06.287Z,80.49
2022-09-20T04:36:29.952Z,80.26
2022-09-20T04:37:37.738Z,80.44
2022-09-20T04:38:41.567Z,80.47
2022-09-20T04:39:47.672Z,80.27
2022-09-20T04:41:10.604Z,80.93
2022-09-20T04:42:15.792Z,80.52
2022-09-20T04:43:38.101Z,79.56
2022-09-20T04:44:47.649Z,79.65
2022-09-20T04:45:54.774Z,79.19
2022-09-20T04:47:09.398Z,79.49
2022-09-20T04:48:30.229Z,79.75
2022-09-20T04:49:52.210Z,79.24
2022-09-20T04:50:59.706Z,79.25
2022-09-20T04:52:06.124Z,78.22
2022-09-20T04:53:20.200Z,78.84
2022-09-20T04:54:25.052Z,78.76
2022-09-20T04:55:47.778Z,78.93
2022-09-20T04:57:08.204Z,78.19
2022-09-20T04:58:20.993Z,78.40
2022-09-20T04:59:37.759Z,77.88
2022-09-20T05:00:49.324Z,78.02
2022-09-20T05:01:58.530Z,77.20
2022-09-20T05:03:06.672Z,77.11
2022-09-20T05:04:12.266Z,76.88
2022-09-20T05:05:21.811Z,77.30
2022-09-20T05:06:44.331Z,77.23
2022-09-20T05:07:57.561Z,77.23
2022-09-20T05:09:05.868Z,77.38
2022-09-20T05:10:17.304Z,76.58
2022-09-20T05:11:26.876Z,75.69
2022-09-20T05:12:38.770Z,75.68
2022-09-20T05:13:57.063Z,76.06
2022-09-20T05:15:14.356Z,75.50
2022-09-20T05:16:27.675Z,75.42
2022-09-20T05:17:38.705Z,75.64
2022-09-20T05:18:46.841Z,75.90
2022-09-20T05:19:54.393Z,75.91
2022-09-20T05:21:10.640Z,74.75
2022-09-20T05:22:18.836Z,75.20
2022-09-20T05:23:26.728Z,74.97
2022-09-20T05:24:40.061Z,74.69
2022-09-20T05:25:45.629Z,73.91
2022-09-20T05:27:03.055Z,72.86
2022-09-20T05:28:14.391Z,73.02
2022-09-20T05:29:18.960Z,73.01
2022-09-20T05:30:36.120Z,73.50
2022-09-20T05:31:49.058Z,71.99
2022-09-20T05:33:02.268Z,71.97
2022-09-20T05:34:11.695Z,72.94
2022-09-20T05:35:25.861Z,72.59
2022-09-20T05:36:34.607Z,73.65
2022-09-20T05:37:50.218Z,73.79
2022-09-20T05:39:09.150Z,74.48
2022-09-20T05:40:27.522Z,75.02
2022-09-20T05:41:32.486Z,75.84
2022-09-20T05:42:48.780Z,76.10
2022-09-20T05:43:56.415Z,75.18
2022-09-20T05:45:03.059Z,75.28
2022-09-20T05:46:20.490Z,75.90
2022-09-20T05:47:37.104Z,76.19
2022-09-20T05:48:55.212Z,76.69
2022-09-20T05:50:03.658Z,76.30
2022-09-20T05:51:08.150Z,75.37
2022-09-20T05:52:25.384Z,75.84
2022-09-20T05:53:46.970Z,75.90
2022-09-20T05:55:08.535Z,75.90
2022-09-20T05:56:26.881Z,75.23
2022-09-20T05:57:47.963Z,74.29
2022-09-20T05:58:56.232Z,74.71
2022-09-20T06:00:03.287Z,74.41
2022-09-20T06:01:23.840Z,73.91
2022-09-20T06:02:41.087Z,73.46
2022-09-20T06:03:52.339Z,73.34
2022-09-20T06:05:07.403Z,72.41
2022-09-20T06:06:15.334Z,71.29
2022-09-20T06:07:26.256Z,71.07
2022-09-20T06:08:47.111Z,69.86
2022-09-20T06:09:51.231Z,69.50
2022-09-20T06:11:06.949Z,68.82
2022-09-20T06:12:15.172Z,67.93
2022-09-20T06:13:36.331Z,67.80
2022-09-20T06:14:43.061Z,67.85
2022-09-20T06:15:52.008Z,67.19
2022-09-20T06:17:10.146Z,67.97
2022-09-20T06:18:24.713Z,67.50
2022-09-20T06:19:41.064Z,67.11
2022-09-20T06:21:02.733Z,67.70
2022-09-20T06:22:18.878Z,68.32
2022-09-20T06:23:23.787Z,69.28
2022-09-20T06:24:34.451Z,70.69
2022-09-20T06:25:43.710Z,71.74
2022-09-20T06:26:47.311Z,71.82
2022-09-20T06:28:00.016Z,72.07
2022-09-20T06:29:05.506Z,72.17
2022-09-20T06:30:11.931Z,72.65
2022-09-20T06:31:18.281Z,73.10
2022-09-20T06:32:21.699Z,73.85
2022-09-20T06:33:26.411Z,73.61
2022-09-20T06:34:29.924Z,73.75
2022-09-20T06:35:40.203Z,73.78
2022-09-20T06:37:10.332Z,74.50
2022-09-20T06:38:54.575Z,74.13
2022-09-20T06:40:21.983Z,74.38
2022-09-20T06:41:30.296Z,74.53
2022-09-20T06:42:34.556Z,74.10
2022-09-20T06:43:38.792Z,73.77
2022-09-20T06:44:42.820Z,73.83
2022-09-20T06:45:47.631Z,73.99
2022-09-20T06:46:51.827Z,73.52
2022-09-20T06:47:54.077Z,73.79
2022-09-20T06:48:59.098Z,72.91
2022-09-20T06:50:09.234Z,72.70
2022-09-20T06:51:12.775Z,72.83
2022-09-20T06:52:21.775Z,72.13
2022-09-20T06:53:28.417Z,72.25
2022-09-20T06:54:33.035Z,71.89
2022-09-20T06:55:39.534Z,71.47
2022-09-20T06:56:44.677Z,70.97
2022-09-20T06:57:48.601Z,71.55
2022-09-20T06:58:53.244Z,71.80
2022-09-20T06:59:57.526Z,72.30
2022-09-20T07:01:01.513Z,72.33
2022-09-20T07:02:09.046Z,72.43
2022-09-20T07:03:13.529Z,72.76
2022-09-20T07:04:16.942Z,71.39
2022-09-20T07:05:25.773Z,71.89
2022-09-20T07:06:29.622Z,71.48
2022-09-20T07:07:32.991Z,71.96
2022-09-20T07:08:36.846Z,72.27
2022-09-20T07:09:41.151Z,72.53
2022-09-20T07:10:44.969Z,71.58
2022-09-20T07:11:48.474Z,71.70
2022-09-20T07:12:51.979Z,72.44
2022-09-20T07:13:56.637Z,72.17
2022-09-20T07:14:59.213Z,72.70
2022-09-20T07:16:05.583Z,73.05
2022-09-20T07:17:12.204Z,73.29
2022-09-20T07:18:18.651Z,73.79
2022-09-20T07:19:23.496Z,73.45
2022-09-20T07:20:27.574Z,74.20
2022-09-20T07:21:30.975Z,73.39
2022-09-20T07:22:35.838Z,73.64
2022-09-20T07:23:39.249Z,73.97
2022-09-20T07:24:43.905Z,73.84
2022-09-20T07:25:48.075Z,73.57
2022-09-20T07:26:55.915Z,73.91
2022-09-20T07:28:00.370Z,73.26
2022-09-20T07:29:04.070Z,72.95
2022-09-20T07:30:07.799Z,72.90
2022-09-20T07:31:12.140Z,73.26
2022-09-20T07:32:16.270Z,73.09
2022-09-20T07:33:21.376Z,72.84
2022-09-20T07:34:24.942Z,72.47
2022-09-20T07:35:29.737Z,72.93
2022-09-20T07:36:33.320Z,72.67
2022-09-20T07:37:39.094Z,72.56
2022-09-20T07:38:46.033Z,72.89
2022-09-20T07:39:49.475Z,72.79
2022-09-20T07:41:01.257Z,71.91
2022-09-20T07:42:06.103Z,72.09
2022-09-20T07:43:11.274Z,71.28
2022-09-20T07:44:28.671Z,71.12
2022-09-20T07:45:33.639Z,70.90
2022-09-20T07:46:39.988Z,71.78
2022-09-20T07:47:46.871Z,71.95
2022-09-20T07:48:50.036Z,71.23
2022-09-20T07:49:57.043Z,70.99
2022-09-20T07:51:05.716Z,71.75
2022-09-20T07:52:08.125Z,70.34
2022-09-20T07:53:10.921Z,70.86
2022-09-20T07:54:14.300Z,72.07
2022-09-20T07:55:17.819Z,72.65
2022-09-20T07:56:20.475Z,72.75
2022-09-20T07:57:24.095Z,73.23
2022-09-20T07:58:27.590Z,74.08
2022-09-20T07:59:30.582Z,74.87
2022-09-20T08:00:33.867Z,76.41
2022-09-20T08:01:39.265Z,74.61
2022-09-20T08:02:42.631Z,77.33
2022-09-20T08:03:46.658Z,77.65
2022-09-20T08:04:51.240Z,75.19
2022-09-20T08:05:56.441Z,75.40
2022-09-20T08:07:01.377Z,74.30
2022-09-20T08:08:04.463Z,73.60
2022-09-20T08:09:11.326Z,74.32
2022-09-20T08:10:15.335Z,72.72
2022-09-20T08:11:20.355Z,75.29
2022-09-20T08:14:34.159Z,73.28
2022-09-20T08:15:37.676Z,74.17
2022-09-20T08:16:42.978Z,73.49
2022-09-20T08:17:47.598Z,69.32
2022-09-20T08:18:59.285Z,70.03
2022-09-20T08:20:03.114Z,70.96
2022-09-20T08:21:07.678Z,72.48
2022-09-20T08:22:14.069Z,71.40
2022-09-20T08:23:23.977Z,73.39
2022-09-20T08:24:27.018Z,74.68
2022-09-20T08:25:29.811Z,73.95
2022-09-20T08:26:35.182Z,73.83
2022-09-20T08:27:38.791Z,74.16
2022-09-20T08:28:42.650Z,73.35
2022-09-20T08:29:44.954Z,75.06
2022-09-20T08:30:51.943Z,75.50
2022-09-20T08:31:56.498Z,74.44
2022-09-20T08:33:03.313Z,74.70
2022-09-20T08:34:07.341Z,75.72
2022-09-20T08:35:11.878Z,75.15
2022-09-20T08:36:18.743Z,75.20
2022-09-20T08:37:21.407Z,75.52
2022-09-20T08:40:37.795Z,75.09
2022-09-20T08:42:02.366Z,76.61
2022-09-20T08:43:06.599Z,77.46
2022-09-20T08:44:20.838Z,77.30
2022-09-20T08:45:34.771Z,77.13
2022-09-20T08:46:35.869Z,78.10
2022-09-20T08:47:41.206Z,76.13
2022-09-20T08:48:48.783Z,77.46
2022-09-20T08:49:57.174Z,77.95
2022-09-20T08:51:05.669Z,77.27
2022-09-20T08:52:11.109Z,77.81
2022-09-20T08:53:21.174Z,77.68
2022-09-20T08:54:23.584Z,78.52
2022-09-20T08:55:37.156Z,79.66
2022-09-20T08:56:40.162Z,78.91
2022-09-20T08:57:45.158Z,78.93
2022-09-20T08:58:49.186Z,78.48
2022-09-20T08:59:52.428Z,79.69
2022-09-20T09:01:00.811Z,80.23
2022-09-20T09:02:04.324Z,81.14
2022-09-20T09:03:09.329Z,82.17
2022-09-20T09:04:17.154Z,81.43
2022-09-20T09:05:33.887Z,81.32
2022-09-20T09:06:40.326Z,81.53
2022-09-20T09:07:46.709Z,81.60
2022-09-20T09:08:52.092Z,82.76
2022-09-20T09:09:56.365Z,81.74
2022-09-20T09:11:07.073Z,82.15
2022-09-20T09:12:20.296Z,80.92
2022-09-20T09:13:29.430Z,82.65
2022-09-20T09:14:53.007Z,83.54
2022-09-20T09:15:58.813Z,83.52
2022-09-20T09:17:02.343Z,83.00
2022-09-20T09:18:08.093Z,82.12
2022-09-20T09:19:36.562Z,82.26
2022-09-20T09:20:37.902Z,81.84
2022-09-20T09:21:42.243Z,83.60
2022-09-20T09:22:47.720Z,82.09
2022-09-20T09:23:57.696Z,85.06
2022-09-20T09:25:19.171Z,82.42
2022-09-20T09:26:24.082Z,83.05
2022-09-20T09:27:26.925Z,83.41
2022-09-20T09:28:32.538Z,84.23
2022-09-20T09:29:37.277Z,84.54
2022-09-20T09:30:45.053Z,81.92
2022-09-20T09:31:52.613Z,82.71
2022-09-20T09:33:14.634Z,83.46
2022-09-20T09:34:22.944Z,83.52
2022-09-20T09:35:29.286Z,83.61
2022-09-20T09:36:33.441Z,85.50
2022-09-20T09:37:36.300Z,84.89
2022-09-20T09:38:44.206Z,81.90
2022-09-20T09:39:47.570Z,82.34
2022-09-20T09:40:54.728Z,82.62
2022-09-20T09:42:01.598Z,84.57
2022-09-20T09:43:05.291Z,84.50
2022-09-20T09:44:12.526Z,85.66
2022-09-20T09:45:17.839Z,87.23
2022-09-20T09:46:26.906Z,86.27
2022-09-20T09:47:30.167Z,85.65
2022-09-20T09:48:34.358Z,86.65
2022-09-20T09:49:37.812Z,86.06
2022-09-20T09:50:40.975Z,85.16
2022-09-20T09:52:04.579Z,84.76
2022-09-20T09:53:13.665Z,83.91
2022-09-20T09:54:21.330Z,82.85
2022-09-20T09:55:26.555Z,84.85
2022-09-20T09:56:34.563Z,87.42
2022-09-20T09:57:53.202Z,87.27
2022-09-20T09:59:13.417Z,86.91
2022-09-20T10:00:22.299Z,85.38
2022-09-20T10:01:32.566Z,86.96
2022-09-20T10:02:36.443Z,85.94
2022-09-20T10:03:41.016Z,86.39
2022-09-20T10:04:54.967Z,87.12
2022-09-20T10:06:04.572Z,86.38
2022-09-20T10:07:13.267Z,86.81
2022-09-20T10:08:21.577Z,87.39
2022-09-20T10:09:29.413Z,88.74
2022-09-20T10:10:36.838Z,88.36
2022-09-20T10:11:42.784Z,87.96
2022-09-20T10:12:47.806Z,88.12
2022-09-20T10:13:53.071Z,86.55
2022-09-20T10:14:57.437Z,86.55
2022-09-20T10:16:18.003Z,87.24
2022-09-20T10:17:26.058Z,85.19
2022-09-20T10:18:31.245Z,87.09
2022-09-20T10:19:47.170Z,86.28
2022-09-20T10:20:55.896Z,86.52
2022-09-20T10:22:04.007Z,86.33
2022-09-20T10:23:51.608Z,86.61
2022-09-20T10:24:28.597Z,87.98
2022-09-20T10:25:44.499Z,87.94
2022-09-20T10:26:51.857Z,86.67
2022-09-20T10:28:03.835Z,88.33
2022-09-20T10:29:09.202Z,87.95
2022-09-20T10:30:17.889Z,88.72
2022-09-20T10:31:38.582Z,88.73
2022-09-20T10:32:47.101Z,89.92
2022-09-20T10:33:54.781Z,88.67
2022-09-20T10:35:09.702Z,89.65
2022-09-20T10:36:29.043Z,88.94
2022-09-20T10:37:34.090Z,89.15
2022-09-20T10:38:42.442Z,89.29
2022-09-20T10:39:47.818Z,88.76
2022-09-20T10:41:22.335Z,89.83
2022-09-20T10:42:46.219Z,89.66
2022-09-20T10:44:09.035Z,89.16
2022-09-20T10:45:59.525Z,89.43
2022-09-20T10:46:52.693Z,90.16
2022-09-20T10:48:01.732Z,91.56
2022-09-20T10:49:07.842Z,92.94
2022-09-20T10:50:13.563Z,90.94
2022-09-20T10:51:20.316Z,91.50
2022-09-20T10:52:32.400Z,91.69
2022-09-20T10:53:50.152Z,91.84
2022-09-20T10:54:56.855Z,92.10
2022-09-20T10:56:02.227Z,93.37
2022-09-20T10:57:13.492Z,90.12
2022-09-20T10:58:19.470Z,90.41
2022-09-20T10:59:41.869Z,90.74
2022-09-20T11:00:53.062Z,89.82
2022-09-20T11:02:11.876Z,91.62
2022-09-20T11:03:22.721Z,89.88
2022-09-20T11:04:27.549Z,88.26
2022-09-20T11:05:36.482Z,88.07
2022-09-20T11:06:41.126Z,87.35
2022-09-20T11:07:53.947Z,88.04
2022-09-20T11:09:00.148Z,88.42
2022-09-20T11:10:09.931Z,87.42
2022-09-20T11:11:34.255Z,87.97
2022-09-20T11:12:46.802Z,89.10
2022-09-20T11:13:59.477Z,88.65
2022-09-20T11:15:06.037Z,88.70
2022-09-20T11:16:11.620Z,91.15
2022-09-20T11:17:27.571Z,91.01
2022-09-20T11:18:37.690Z,90.79
2022-09-20T11:20:04.856Z,90.81
2022-09-20T11:21:14.945Z,92.25
2022-09-20T11:22:19.957Z,91.20
2022-09-20T11:23:25.935Z,91.74
2022-09-20T11:24:34.244Z,92.52
2022-09-20T11:25:40.787Z,91.44
2022-09-20T11:26:49.078Z,91.66
2022-09-20T11:27:53.220Z,91.53
2022-09-20T11:28:58.180Z,90.56
2022-09-20T11:30:07.637Z,90.40
2022-09-20T11:31:13.543Z,90.27
2022-09-20T11:32:25.339Z,88.82
2022-09-20T11:33:42.382Z,89.93
2022-09-20T11:35:12.639Z,88.14
2022-09-20T11:36:20.738Z,88.06
2022-09-20T11:37:24.952Z,89.17
2022-09-20T11:38:33.428Z,86.51
2022-09-20T11:39:55.693Z,88.27
2022-09-20T11:41:03.574Z,88.82
2022-09-20T11:42:07.820Z,88.22
2022-09-20T11:43:13.518Z,88.48
2022-09-20T11:44:19.997Z,89.04
2022-09-20T11:45:27.699Z,88.06
2022-09-20T11:46:31.549Z,87.64
2022-09-20T11:47:54.409Z,88.02
2022-09-20T11:48:52.307Z,85.69
2022-09-20T11:50:17.259Z,87.65
2022-09-20T11:51:43.320Z,87.74
2022-09-20T11:52:48.614Z,87.83
2022-09-20T11:54:00.715Z,85.98
2022-09-20T11:55:17.652Z,86.81
2022-09-20T11:56:26.837Z,85.11
2022-09-20T11:57:30.523Z,86.00
2022-09-20T11:58:37.787Z,84.70
2022-09-20T11:59:42.755Z,86.03
2022-09-20T12:00:47.399Z,86.69
2022-09-20T12:01:52.579Z,88.61
2022-09-20T12:03:00.264Z,86.92
2022-09-20T12:04:31.688Z,85.50
2022-09-20T12:05:33.495Z,86.63
2022-09-20T12:06:39.192Z,85.86
2022-09-20T12:07:45.878Z,87.56
2022-09-20T12:08:55.112Z,86.34
2022-09-20T12:10:01.014Z,86.39
2022-09-20T12:11:06.062Z,86.71
2022-09-20T12:12:28.199Z,88.09
2022-09-20T12:13:35.201Z,87.72
2022-09-20T12:14:38.288Z,87.07
2022-09-20T12:15:44.615Z,87.65
2022-09-20T12:16:50.695Z,87.21
2022-09-20T12:17:56.335Z,87.55
2022-09-20T12:19:01.696Z,88.84
2022-09-20T12:20:06.159Z,89.64
2022-09-20T12:21:15.382Z,89.61
2022-09-20T12:22:16.416Z,89.18
2022-09-20T12:23:42.303Z,88.57
2022-09-20T12:24:45.800Z,88.82
2022-09-20T12:26:04.352Z,89.11
2022-09-20T12:27:27.812Z,88.32
2022-09-20T12:28:37.651Z,88.68
2022-09-20T12:29:48.591Z,89.49
2022-09-20T12:30:53.749Z,88.90
2022-09-20T12:32:05.577Z,87.86
2022-09-20T12:33:09.834Z,88.92
2022-09-20T12:34:16.403Z,87.77
2022-09-20T12:35:26.255Z,88.31
2022-09-20T12:36:32.994Z,88.92
2022-09-20T12:37:40.399Z,90.25
2022-09-20T12:38:47.052Z,88.72
2022-09-20T12:39:52.068Z,88.03
2022-09-20T12:41:14.895Z,87.61
2022-09-20T12:42:28.384Z,87.87
2022-09-20T12:43:32.663Z,88.86
2022-09-20T12:44:39.477Z,89.78
2022-09-20T12:45:43.665Z,90.14
2022-09-20T12:47:08.037Z,91.09
2022-09-20T12:48:14.637Z,92.71
2022-09-20T12:49:24.315Z,90.38
2022-09-20T12:50:46.774Z,90.30
2022-09-20T12:52:11.375Z,90.36
2022-09-20T12:53:15.706Z,91.41
2022-09-20T12:54:20.394Z,92.21
2022-09-20T12:55:43.086Z,92.00
2022-09-20T12:56:48.323Z,91.62
2022-09-20T12:57:57.238Z,91.83
2022-09-20T12:59:02.478Z,92.52
2022-09-20T13:00:08.619Z,93.98
2022-09-20T13:01:14.491Z,93.10
2022-09-20T13:02:36.070Z,93.97
2022-09-20T13:03:42.434Z,95.82
2022-09-20T13:04:50.711Z,94.17
2022-09-20T13:05:59.427Z,93.75
2022-09-20T13:07:23.866Z,93.55
2022-09-20T13:08:33.576Z,92.22
2022-09-20T13:09:37.321Z,90.94
2022-09-20T13:10:45.001Z,90.66
2022-09-20T13:11:51.602Z,89.97
2022-09-20T13:12:56.189Z,90.91
2022-09-20T13:14:07.486Z,90.95
2022-09-20T13:15:11.554Z,90.86
2022-09-20T13:16:25.848Z,90.84
2022-09-20T13:17:32.728Z,91.09
2022-09-20T13:18:36.891Z,90.84
2022-09-20T13:19:45.408Z,90.33
2022-09-20T13:20:48.287Z,90.99
2022-09-20T13:21:58.487Z,90.47
2022-09-20T13:23:05.604Z,90.75
2022-09-20T13:24:12.078Z,91.02
2022-09-20T13:25:19.881Z,91.43
2022-09-20T13:26:32.028Z,91.47
2022-09-20T13:27:42.751Z,91.48
2022-09-20T13:28:54.851Z,90.73
2022-09-20T13:30:18.058Z,90.81
2022-09-20T13:31:24.622Z,91.08
2022-09-20T13:32:29.177Z,91.55
2022-09-20T13:33:31.611Z,91.56
2022-09-20T13:34:36.671Z,91.70
2022-09-20T13:35:40.802Z,91.50
2022-09-20T13:36:44.099Z,91.72
2022-09-20T13:37:49.067Z,92.42
2022-09-20T13:38:54.527Z,94.00
2022-09-20T13:39:59.225Z,94.12
2022-09-20T13:41:03.770Z,95.12
2022-09-20T13:42:11.245Z,94.33
2022-09-20T13:43:34.269Z,94.54
2022-09-20T13:44:38.610Z,94.82
2022-09-20T13:45:43.756Z,94.81
2022-09-20T13:46:47.082Z,94.96
2022-09-20T13:47:52.259Z,95.11
2022-09-20T13:49:00.463Z,96.28
2022-09-20T13:50:04.609Z,95.77
2022-09-20T13:51:24.918Z,96.43
2022-09-20T13:52:28.743Z,97.22
2022-09-20T13:53:47.360Z,96.96
2022-09-20T13:54:37.322Z,97.88
2022-09-20T13:55:41.547Z,97.78
2022-09-20T13:56:45.785Z,97.91
2022-09-20T13:57:49.184Z,97.06
2022-09-20T13:58:52.929Z,97.07
2022-09-20T14:00:01.326Z,96.77
2022-09-20T14:01:10.099Z,97.28
2022-09-20T14:02:16.455Z,97.04
2022-09-20T14:03:21.857Z,97.44
2022-09-20T14:04:29.688Z,97.69
2022-09-20T14:05:34.084Z,98.18
2022-09-20T14:06:36.558Z,98.66
2022-09-20T14:07:39.531Z,97.96
2022-09-20T14:08:44.926Z,98.36
2022-09-20T14:09:49.431Z,98.46
2022-09-20T14:10:53.712Z,99.25
2022-09-20T14:11:58.355Z,99.72
2022-09-20T14:13:03.466Z,99.37
2022-09-20T14:14:11.737Z,99.85
2022-09-20T14:15:16.091Z,99.22
2022-09-20T14:16:21.041Z,99.47
2022-09-20T14:17:25.449Z,99.89
2022-09-20T14:18:28.377Z,100.00
2022-09-20T14:19:36.570Z,100.00
2022-09-20T14:20:42.259Z,100.00
2022-09-20T14:21:45.042Z,99.56
2022-09-20T14:22:49.594Z,100.00
2022-09-20T14:24:01.873Z,100.00
2022-09-20T14:25:07.371Z,100.00
2022-09-20T14:26:19.012Z,100.00
2022-09-20T14:27:22.110Z,100.00
2022-09-20T14:28:30.840Z,100.00
2022-09-20T14:29:38.556Z,100.00
2022-09-20T14:30:42.370Z,100.00
2022-09-20T14:31:47.815Z,100.00
2022-09-20T14:32:51.960Z,100.00
2022-09-20T14:33:58.039Z,100.00
2022-09-20T14:35:07.013Z,100.00
2022-09-20T14:36:17.062Z,100.00
2022-09-20T14:37:26.250Z,100.00
2022-09-20T14:38:29.632Z,100.00
2022-09-20T14:39:33.870Z,100.00
2022-09-20T14:40:47.609Z,100.00
2022-09-20T14:41:51.021Z,100.00
2022-09-20T14:44:20.519Z,100.00
2022-09-20T14:45:28.527Z,100.00
2022-09-20T14:46:36.678Z,100.00
2022-09-20T14:47:41.885Z,100.00
2022-09-20T14:48:46.309Z,100.00
2022-09-20T14:49:49.607Z,100.00
2022-09-20T14:51:12.739Z,100.00
2022-09-20T14:52:29.622Z,100.00
2022-09-20T14:53:33.545Z,100.00
2022-09-20T14:54:37.563Z,100.00
2022-09-20T14:55:41.900Z,100.00
2022-09-20T14:56:48.748Z,100.00
2022-09-20T14:57:57.791Z,100.00